Pasadena 2N

39° 08' 31"N, 76° 30' 27"W, Elevation 43 ft.
Eastern Time

Hourly observations for the last 72 hours

Date Time Temperature (°F) Humi-
dity

(%)
Wind
(mph)
Pressure Rain (in) Sun
(W/m2)
ET
(in)
Air Dew 6 Hour 1 Hr 3 Hr 6 Hr Day
Alt
(in)
Sea
Level

(mb)
Max Min
24 20:00 76.4 66.3 91.3 76.4 71 WSW 4 G 10 29.85 1010.8 0.01 11 0.153
24 19:00 83.1 72.7 71 W 2 G 4 29.80 1009.3 0.01 76 0.149
24 18:00 87.4 73.3 63 S 2 G 7 29.78 1008.6 0.01 461 0.138
24 17:00 84.9 70.4 62 SW 3 G 7 29.80 1009.2 0.01 346 0.129
24 16:00 87.6 68.9 54 W 3 G 14 29.81 1009.4 0.01 243 0.116
24 15:00 91.2 71.7 53 W 4 G 9 29.80 1009.3 0.01 387 0.093
24 14:00 88.5 70.3 89.8 71.5 55 WSW 4 G 10 29.82 1009.9 0.01 350 0.069
24 13:00 88.5 69.8 54 W 5 G 12 29.83 1010.2 0.01 737 0.044
24 12:00 85.8 73.1 66 WSW 2 G 7 29.83 1010.3 0.01 889 0.025
24 11:00 83.7 74.5 74 SSW 3 G 7 29.84 1010.5 0.01 842 0.011
24 10:00 79.9 74.6 84 SW 1 G 3 29.83 1010.3 0.01 378 0.005
24 09:00 73.5 71.4 93 W 0 G 3 29.84 1010.5 0.01 67 0.003
24 08:00 71.6 70.1 71.6 67.0 95 W 1 G 4 29.84 1010.6 0.01 0.01 90 0.001
24 07:00 69.3 67.8 95 E 0 G 2 29.82 1010.0 0.01 90 0.000
24 06:00 67.4 65.6 94 E 0 G 2 29.81 1009.6 0.01 11 0.000
24 05:00 67.5 66.0 95 E 0 G 1 29.80 1009.2 0.01 0.01 0 0.000
24 04:00 68.0 66.2 94 Calm 29.80 1009.1 0.01 0 0.000
24 03:00 68.1 66.3 94 Calm 29.80 1009.0 0.01 0.01 0 0.000
24 02:00 68.5 66.7 75.5 68.3 94 Calm 29.80 1009.1 0.09 0.10 0.00 0 0.000
24 01:00 68.7 66.6 93 Calm 29.80 1009.3 0.00 0 0.000
24 00:00 70.3 68.2 93 E 1 G 2 29.80 1009.3 0.09 0.15 0 0.060
23 23:00 72.0 69.9 93 W 2 G 3 29.82 1009.9 0.01 0.01 0.06 0 0.060
23 22:00 72.5 69.7 91 Calm 29.79 1008.8 0.05 0 0.060
23 21:00 73.6 70.5 90 E 0 G 1 29.77 1008.2 0.05 0 0.060
23 20:00 75.5 71.7 80.5 72.6 88 E 2 G 4 29.77 1008.2 0.05 26 0.059
23 19:00 77.3 71.4 82 NNW 1 G 4 29.77 1008.1 0.05 67 0.054
23 18:00 79.0 72.3 80 NE 1 G 7 29.75 1007.6 0.05 311 0.043
23 17:00 78.4 72.1 81 NE 2 G 8 29.76 1008.0 0.05 573 0.033
23 16:00 75.0 70.9 87 NE 3 G 7 29.77 1008.3 0.05 332 0.025
23 15:00 72.8 69.7 90 WNW 1 G 2 29.78 1008.5 0.05 195 0.022
23 14:00 73.1 69.7 73.2 68.3 89 WSW 1 G 3 29.79 1008.9 0.05 255 0.017
23 13:00 72.2 69.1 90 ENE 1 G 3 29.81 1009.5 0.05 162 0.013
23 12:00 71.2 68.4 91 NE 1 G 5 29.82 1009.7 0.05 297 0.009
23 11:00 70.4 68.0 92 ENE 1 G 2 29.82 1010.0 0.05 84 0.006
23 10:00 69.9 67.2 91 E 0 G 4 29.82 1009.9 0.05 130 0.003
23 09:00 69.2 67.1 93 NNE 0 G 6 29.82 1010.0 0.05 77 0.001
23 08:00 68.3 66.5 68.3 66.8 94 NE 2 G 4 29.82 1009.9 0.01 0.04 0.05 25 0.000
23 07:00 67.7 65.9 94 E 0 G 6 29.81 1009.4 0.05 12 0.000
23 06:00 67.6 65.8 94 NE 1 G 4 29.80 1009.3 0.01 0.05 0 0.000
23 05:00 67.5 65.7 94 ENE 2 G 4 29.79 1008.9 0.01 0.03 0.04 0 0.000
23 04:00 67.5 65.7 94 ENE 1 G 4 29.81 1009.5 0.01 0.03 0 0.000
23 03:00 67.3 65.5 94 NE 1 G 6 29.82 1009.9 0.01 0.02 0 0.000
23 02:00 66.8 64.7 66.9 64.3 93 ENE 6 G 10 29.84 1010.4 0.01 0.01 0.01 0 0.000
23 01:00 66.1 64.0 93 ENE 2 G 9 29.85 1010.8 0.01 0.01 0 0.000
23 00:00 65.5 62.8 91 E 4 G 7 29.87 1011.4 0.21 0 0.037
22 23:00 65.3 62.0 89 ENE 2 G 14 29.87 1011.5 0.21 0 0.036
22 22:00 65.0 62.0 90 NE 6 G 12 29.90 1012.5 0.21 0 0.035
22 21:00 64.4 61.7 91 NE 2 G 7 29.89 1012.3 0.21 0 0.035
22 20:00 65.3 62.3 70.1 65.3 90 ENE 3 G 9 29.89 1012.3 0.01 0.02 0.10 0.21 0 0.034
22 19:00 65.6 62.6 90 ENE 3 G 10 29.90 1012.4 0.01 0.20 19 0.033
22 18:00 66.0 63.3 91 E 3 G 13 29.89 1012.2 0.19 67 0.031
22 17:00 67.2 64.2 90 E 6 G 18 29.89 1012.2 0.06 0.08 0.19 107 0.029
22 16:00 69.2 65.5 88 ENE 5 G 14 29.90 1012.4 0.01 0.13 79 0.024
22 15:00 69.4 66.0 89 E 3 G 10 29.90 1012.6 0.01 0.12 186 0.019
22 14:00 68.8 65.1 71.9 68.4 88 NE 3 G 15 29.92 1013.2 0.10 0.11 0.11 211 0.016
22 13:00 68.9 65.2 88 ENE 4 G 15 29.92 1013.1 0.04 0.11 137 0.013
22 12:00 68.5 65.5 90 E 2 G 10 29.92 1013.1 0.06 0.07 83 0.011
22 11:00 69.2 64.8 86 E 5 G 12 29.90 1012.4 0.01 0.01 49 0.009
22 10:00 70.7 66.0 85 ENE 3 G 9 29.89 1012.4 0.01 0.01 63 0.006
22 09:00 71.6 65.5 81 E 4 G 12 29.88 1012.0 0.00 91 0.003
22 08:00 71.5 65.0 72.2 69.4 80 ENE 3 G 8 29.87 1011.5 0.00 60 0.001
22 07:00 71.5 65.0 80 E 3 G 8 29.86 1011.1 0.00 79 0.000
22 06:00 69.9 64.5 83 NE 1 G 4 29.84 1010.6 0.00 9 0.000
22 05:00 69.6 66.2 89 Calm 29.81 1009.7 0.00 0 0.000
22 04:00 70.0 67.3 91 ENE 0 G 2 29.80 1009.2 0.00 0 0.000
22 03:00 70.3 67.9 92 Calm 29.80 1009.2 0.00 0 0.000
22 02:00 70.6 68.2 75.9 70.6 92 ENE 0 G 1 29.81 1009.3 0.00 0 0.000
22 01:00 71.1 68.7 92 ENE 0 G 1 29.82 1009.7 0.00 0 0.000
22 00:00 71.1 68.7 92 Calm 29.81 1009.6 0.00 0 0.093
21 23:00 71.2 68.4 91 Calm 29.81 1009.3 0.00 0 0.093
21 22:00 71.7 68.3 89 Calm 29.80 1009.3 0.00 0 0.093
21 21:00 72.8 68.4 86 Calm 29.79 1008.9 0.00 0 0.093

Data generated by WxSolution Version 1.9.0.7, Build 2017.01.19.